sensor_id;sensor_type;location;lat;lon;timestamp;P1;durP1;ratioP1;P2;durP2;ratioP2
40951;SDS011;26682;51.660;19.338;2024-01-25T00:02:15;8.57;;;2.33;;
40951;SDS011;26682;51.660;19.338;2024-01-25T00:04:58;12.52;;;2.65;;
40951;SDS011;26682;51.660;19.338;2024-01-25T00:07:44;12.73;;;2.40;;
40951;SDS011;26682;51.660;19.338;2024-01-25T00:10:31;11.65;;;2.47;;
40951;SDS011;26682;51.660;19.338;2024-01-25T00:13:14;14.82;;;3.33;;
40951;SDS011;26682;51.660;19.338;2024-01-25T00:15:56;10.18;;;2.42;;
40951;SDS011;26682;51.660;19.338;2024-01-25T00:18:39;9.90;;;2.38;;
40951;SDS011;26682;51.660;19.338;2024-01-25T00:21:22;10.63;;;2.30;;
40951;SDS011;26682;51.660;19.338;2024-01-25T00:24:04;12.13;;;2.67;;
40951;SDS011;26682;51.660;19.338;2024-01-25T00:26:47;10.43;;;2.83;;
40951;SDS011;26682;51.660;19.338;2024-01-25T00:29:30;10.77;;;2.50;;
40951;SDS011;26682;51.660;19.338;2024-01-25T00:32:12;15.30;;;2.72;;
40951;SDS011;26682;51.660;19.338;2024-01-25T00:34:55;15.48;;;3.08;;
40951;SDS011;26682;51.660;19.338;2024-01-25T00:37:38;11.80;;;2.50;;
40951;SDS011;26682;51.660;19.338;2024-01-25T00:40:22;12.02;;;2.22;;
40951;SDS011;26682;51.660;19.338;2024-01-25T00:43:04;13.10;;;2.47;;
40951;SDS011;26682;51.660;19.338;2024-01-25T00:45:48;10.57;;;2.70;;
40951;SDS011;26682;51.660;19.338;2024-01-25T00:48:31;11.55;;;2.05;;
40951;SDS011;26682;51.660;19.338;2024-01-25T00:51:19;14.25;;;3.03;;
40951;SDS011;26682;51.660;19.338;2024-01-25T00:54:04;10.57;;;2.72;;
40951;SDS011;26682;51.660;19.338;2024-01-25T00:56:48;10.05;;;2.17;;
40951;SDS011;26682;51.660;19.338;2024-01-25T00:59:34;10.97;;;2.23;;
40951;SDS011;26682;51.660;19.338;2024-01-25T01:02:17;8.68;;;1.55;;
40951;SDS011;26682;51.660;19.338;2024-01-25T01:05:03;7.88;;;1.25;;
40951;SDS011;26682;51.660;19.338;2024-01-25T01:07:46;5.63;;;1.92;;
40951;SDS011;26682;51.660;19.338;2024-01-25T01:10:29;12.35;;;2.17;;
40951;SDS011;26682;51.660;19.338;2024-01-25T01:13:12;5.97;;;1.50;;
40951;SDS011;26682;51.660;19.338;2024-01-25T01:15:55;6.28;;;1.45;;
40951;SDS011;26682;51.660;19.338;2024-01-25T01:18:37;11.80;;;2.00;;
40951;SDS011;26682;51.660;19.338;2024-01-25T01:21:20;7.70;;;2.05;;
40951;SDS011;26682;51.660;19.338;2024-01-25T01:24:03;7.85;;;1.73;;
40951;SDS011;26682;51.660;19.338;2024-01-25T01:26:45;10.90;;;2.70;;
40951;SDS011;26682;51.660;19.338;2024-01-25T01:29:28;10.07;;;2.78;;
40951;SDS011;26682;51.660;19.338;2024-01-25T01:32:11;11.98;;;3.08;;
40951;SDS011;26682;51.660;19.338;2024-01-25T01:34:53;14.35;;;3.60;;
40951;SDS011;26682;51.660;19.338;2024-01-25T01:37:35;8.05;;;2.35;;
40951;SDS011;26682;51.660;19.338;2024-01-25T01:40:18;8.25;;;1.80;;
40951;SDS011;26682;51.660;19.338;2024-01-25T01:43:01;5.93;;;1.63;;
40951;SDS011;26682;51.660;19.338;2024-01-25T01:45:44;15.27;;;2.00;;
40951;SDS011;26682;51.660;19.338;2024-01-25T01:48:27;15.20;;;2.80;;
40951;SDS011;26682;51.660;19.338;2024-01-25T01:51:09;12.00;;;2.40;;
40951;SDS011;26682;51.660;19.338;2024-01-25T01:53:53;9.00;;;2.17;;
40951;SDS011;26682;51.660;19.338;2024-01-25T01:56:36;7.38;;;1.95;;
40951;SDS011;26682;51.660;19.338;2024-01-25T01:59:21;10.93;;;2.22;;
40951;SDS011;26682;51.660;19.338;2024-01-25T02:02:07;11.02;;;2.58;;
40951;SDS011;26682;51.660;19.338;2024-01-25T02:04:50;11.25;;;2.05;;
40951;SDS011;26682;51.660;19.338;2024-01-25T02:07:32;8.60;;;2.25;;
40951;SDS011;26682;51.660;19.338;2024-01-25T02:10:15;11.75;;;2.10;;
40951;SDS011;26682;51.660;19.338;2024-01-25T02:12:58;12.02;;;2.58;;
40951;SDS011;26682;51.660;19.338;2024-01-25T02:15:40;11.27;;;2.75;;
40951;SDS011;26682;51.660;19.338;2024-01-25T02:18:24;10.10;;;2.30;;
40951;SDS011;26682;51.660;19.338;2024-01-25T02:21:06;12.38;;;2.28;;
40951;SDS011;26682;51.660;19.338;2024-01-25T02:23:50;13.95;;;3.03;;
40951;SDS011;26682;51.660;19.338;2024-01-25T02:26:32;9.80;;;2.25;;
40951;SDS011;26682;51.660;19.338;2024-01-25T02:29:16;11.93;;;2.17;;
40951;SDS011;26682;51.660;19.338;2024-01-25T02:31:58;15.63;;;2.50;;
40951;SDS011;26682;51.660;19.338;2024-01-25T02:34:41;12.07;;;2.97;;
40951;SDS011;26682;51.660;19.338;2024-01-25T02:37:23;8.32;;;2.13;;
40951;SDS011;26682;51.660;19.338;2024-01-25T02:40:06;10.73;;;2.15;;
40951;SDS011;26682;51.660;19.338;2024-01-25T02:42:49;8.43;;;1.95;;
40951;SDS011;26682;51.660;19.338;2024-01-25T02:45:32;11.82;;;2.45;;
40951;SDS011;26682;51.660;19.338;2024-01-25T02:48:14;9.40;;;2.22;;
40951;SDS011;26682;51.660;19.338;2024-01-25T02:50:57;10.38;;;2.30;;
40951;SDS011;26682;51.660;19.338;2024-01-25T02:53:40;11.20;;;2.08;;
40951;SDS011;26682;51.660;19.338;2024-01-25T02:56:23;11.82;;;2.30;;
40951;SDS011;26682;51.660;19.338;2024-01-25T02:59:05;11.68;;;2.13;;
40951;SDS011;26682;51.660;19.338;2024-01-25T03:01:48;10.00;;;2.30;;
40951;SDS011;26682;51.660;19.338;2024-01-25T03:04:31;10.95;;;2.70;;
40951;SDS011;26682;51.660;19.338;2024-01-25T03:07:13;15.13;;;3.20;;
40951;SDS011;26682;51.660;19.338;2024-01-25T03:09:56;10.30;;;2.20;;
40951;SDS011;26682;51.660;19.338;2024-01-25T03:12:38;13.07;;;3.30;;
40951;SDS011;26682;51.660;19.338;2024-01-25T03:15:20;11.15;;;2.80;;
40951;SDS011;26682;51.660;19.338;2024-01-25T03:18:03;11.63;;;2.70;;
40951;SDS011;26682;51.660;19.338;2024-01-25T03:20:46;13.65;;;2.58;;
40951;SDS011;26682;51.660;19.338;2024-01-25T03:23:29;11.77;;;2.15;;
40951;SDS011;26682;51.660;19.338;2024-01-25T03:26:11;11.13;;;2.80;;
40951;SDS011;26682;51.660;19.338;2024-01-25T03:28:54;12.27;;;3.45;;
40951;SDS011;26682;51.660;19.338;2024-01-25T03:31:36;13.43;;;3.22;;
40951;SDS011;26682;51.660;19.338;2024-01-25T03:34:19;17.08;;;2.72;;
40951;SDS011;26682;51.660;19.338;2024-01-25T03:37:02;20.00;;;3.95;;
40951;SDS011;26682;51.660;19.338;2024-01-25T03:39:45;15.23;;;3.00;;
40951;SDS011;26682;51.660;19.338;2024-01-25T03:42:27;16.83;;;3.22;;
40951;SDS011;26682;51.660;19.338;2024-01-25T03:45:09;16.65;;;2.80;;
40951;SDS011;26682;51.660;19.338;2024-01-25T03:47:52;13.10;;;2.42;;
40951;SDS011;26682;51.660;19.338;2024-01-25T03:50:34;16.83;;;3.00;;
40951;SDS011;26682;51.660;19.338;2024-01-25T03:53:17;15.98;;;3.30;;
40951;SDS011;26682;51.660;19.338;2024-01-25T03:55:59;17.70;;;3.20;;
40951;SDS011;26682;51.660;19.338;2024-01-25T03:58:41;16.40;;;3.40;;
40951;SDS011;26682;51.660;19.338;2024-01-25T04:01:24;9.90;;;2.30;;
40951;SDS011;26682;51.660;19.338;2024-01-25T04:04:10;19.13;;;4.05;;
40951;SDS011;26682;51.660;19.338;2024-01-25T04:06:53;13.90;;;2.88;;
40951;SDS011;26682;51.660;19.338;2024-01-25T04:09:35;15.10;;;3.05;;
40951;SDS011;26682;51.660;19.338;2024-01-25T04:12:19;17.63;;;3.75;;
40951;SDS011;26682;51.660;19.338;2024-01-25T04:15:01;16.60;;;3.17;;
40951;SDS011;26682;51.660;19.338;2024-01-25T04:17:44;11.52;;;2.85;;
40951;SDS011;26682;51.660;19.338;2024-01-25T04:20:26;25.95;;;4.25;;
40951;SDS011;26682;51.660;19.338;2024-01-25T04:23:10;18.50;;;3.15;;
40951;SDS011;26682;51.660;19.338;2024-01-25T04:25:52;15.38;;;3.38;;
40951;SDS011;26682;51.660;19.338;2024-01-25T04:28:37;18.75;;;4.57;;
40951;SDS011;26682;51.660;19.338;2024-01-25T04:31:19;17.45;;;3.22;;
40951;SDS011;26682;51.660;19.338;2024-01-25T04:34:02;16.73;;;3.15;;
40951;SDS011;26682;51.660;19.338;2024-01-25T04:36:44;15.05;;;3.00;;
40951;SDS011;26682;51.660;19.338;2024-01-25T04:39:27;19.65;;;3.97;;
40951;SDS011;26682;51.660;19.338;2024-01-25T04:42:10;15.43;;;2.97;;
40951;SDS011;26682;51.660;19.338;2024-01-25T04:44:52;17.35;;;4.00;;
40951;SDS011;26682;51.660;19.338;2024-01-25T04:47:36;20.35;;;4.43;;
40951;SDS011;26682;51.660;19.338;2024-01-25T04:50:21;15.15;;;3.85;;
40951;SDS011;26682;51.660;19.338;2024-01-25T04:53:03;18.40;;;4.15;;
40951;SDS011;26682;51.660;19.338;2024-01-25T04:55:46;19.80;;;3.10;;
40951;SDS011;26682;51.660;19.338;2024-01-25T04:58:28;25.63;;;3.97;;
40951;SDS011;26682;51.660;19.338;2024-01-25T05:01:11;13.52;;;2.80;;
40951;SDS011;26682;51.660;19.338;2024-01-25T05:03:54;16.38;;;3.70;;
40951;SDS011;26682;51.660;19.338;2024-01-25T05:06:37;18.10;;;3.35;;
40951;SDS011;26682;51.660;19.338;2024-01-25T05:09:20;19.63;;;4.50;;
40951;SDS011;26682;51.660;19.338;2024-01-25T05:12:03;19.25;;;4.45;;
40951;SDS011;26682;51.660;19.338;2024-01-25T05:14:46;19.95;;;3.53;;
40951;SDS011;26682;51.660;19.338;2024-01-25T05:17:29;20.33;;;4.05;;
40951;SDS011;26682;51.660;19.338;2024-01-25T05:20:11;19.08;;;3.45;;
40951;SDS011;26682;51.660;19.338;2024-01-25T05:22:55;16.00;;;3.72;;
40951;SDS011;26682;51.660;19.338;2024-01-25T05:25:38;18.02;;;3.75;;
40951;SDS011;26682;51.660;19.338;2024-01-25T05:28:21;16.92;;;3.08;;
40951;SDS011;26682;51.660;19.338;2024-01-25T05:31:04;20.58;;;3.80;;
40951;SDS011;26682;51.660;19.338;2024-01-25T05:33:47;17.80;;;3.53;;
40951;SDS011;26682;51.660;19.338;2024-01-25T05:36:30;18.30;;;4.10;;
40951;SDS011;26682;51.660;19.338;2024-01-25T05:39:13;13.93;;;3.45;;
40951;SDS011;26682;51.660;19.338;2024-01-25T05:41:56;12.32;;;2.92;;
40951;SDS011;26682;51.660;19.338;2024-01-25T05:44:39;16.83;;;3.60;;
40951;SDS011;26682;51.660;19.338;2024-01-25T05:47:21;15.75;;;4.20;;
40951;SDS011;26682;51.660;19.338;2024-01-25T05:50:04;20.52;;;4.72;;
40951;SDS011;26682;51.660;19.338;2024-01-25T05:52:47;18.95;;;4.07;;
40951;SDS011;26682;51.660;19.338;2024-01-25T05:55:30;14.82;;;3.58;;
40951;SDS011;26682;51.660;19.338;2024-01-25T05:58:12;20.00;;;5.70;;
40951;SDS011;26682;51.660;19.338;2024-01-25T06:00:55;17.25;;;3.60;;
40951;SDS011;26682;51.660;19.338;2024-01-25T06:03:38;19.45;;;3.95;;
40951;SDS011;26682;51.660;19.338;2024-01-25T06:06:20;14.07;;;3.33;;
40951;SDS011;26682;51.660;19.338;2024-01-25T06:09:04;19.45;;;3.55;;
40951;SDS011;26682;51.660;19.338;2024-01-25T06:11:54;18.63;;;3.50;;
40951;SDS011;26682;51.660;19.338;2024-01-25T06:14:37;16.58;;;3.38;;
40951;SDS011;26682;51.660;19.338;2024-01-25T06:17:20;21.42;;;3.50;;
40951;SDS011;26682;51.660;19.338;2024-01-25T06:20:02;18.20;;;4.07;;
40951;SDS011;26682;51.660;19.338;2024-01-25T06:22:45;10.63;;;2.80;;
40951;SDS011;26682;51.660;19.338;2024-01-25T06:25:27;17.33;;;3.25;;
40951;SDS011;26682;51.660;19.338;2024-01-25T06:28:13;11.98;;;3.10;;
40951;SDS011;26682;51.660;19.338;2024-01-25T06:30:55;19.08;;;4.60;;
40951;SDS011;26682;51.660;19.338;2024-01-25T06:33:38;19.85;;;5.88;;
40951;SDS011;26682;51.660;19.338;2024-01-25T06:36:24;14.43;;;3.58;;
40951;SDS011;26682;51.660;19.338;2024-01-25T06:39:08;16.02;;;4.28;;
40951;SDS011;26682;51.660;19.338;2024-01-25T06:41:50;22.55;;;4.13;;
40951;SDS011;26682;51.660;19.338;2024-01-25T06:44:33;21.50;;;3.67;;
40951;SDS011;26682;51.660;19.338;2024-01-25T06:47:16;21.13;;;4.40;;
40951;SDS011;26682;51.660;19.338;2024-01-25T06:50:02;19.05;;;3.80;;
40951;SDS011;26682;51.660;19.338;2024-01-25T06:52:45;23.25;;;4.03;;
40951;SDS011;26682;51.660;19.338;2024-01-25T06:55:27;12.85;;;3.75;;
40951;SDS011;26682;51.660;19.338;2024-01-25T06:58:10;14.95;;;3.92;;
40951;SDS011;26682;51.660;19.338;2024-01-25T07:00:53;21.38;;;4.70;;
40951;SDS011;26682;51.660;19.338;2024-01-25T07:03:36;18.30;;;4.72;;
40951;SDS011;26682;51.660;19.338;2024-01-25T07:06:20;13.23;;;3.65;;
40951;SDS011;26682;51.660;19.338;2024-01-25T07:09:02;19.38;;;3.47;;
40951;SDS011;26682;51.660;19.338;2024-01-25T07:11:45;18.63;;;4.10;;
40951;SDS011;26682;51.660;19.338;2024-01-25T07:14:28;19.90;;;4.18;;
40951;SDS011;26682;51.660;19.338;2024-01-25T07:17:10;17.45;;;3.92;;
40951;SDS011;26682;51.660;19.338;2024-01-25T07:19:53;19.27;;;3.60;;
40951;SDS011;26682;51.660;19.338;2024-01-25T07:22:35;22.20;;;3.50;;
40951;SDS011;26682;51.660;19.338;2024-01-25T07:25:17;16.50;;;4.38;;
40951;SDS011;26682;51.660;19.338;2024-01-25T07:28:00;17.17;;;3.20;;
40951;SDS011;26682;51.660;19.338;2024-01-25T07:30:46;9.90;;;2.67;;
40951;SDS011;26682;51.660;19.338;2024-01-25T07:33:32;11.90;;;3.22;;
40951;SDS011;26682;51.660;19.338;2024-01-25T07:36:15;17.40;;;3.45;;
40951;SDS011;26682;51.660;19.338;2024-01-25T07:38:58;18.50;;;3.65;;
40951;SDS011;26682;51.660;19.338;2024-01-25T07:41:41;16.38;;;4.20;;
40951;SDS011;26682;51.660;19.338;2024-01-25T07:44:23;17.92;;;4.65;;
40951;SDS011;26682;51.660;19.338;2024-01-25T07:47:07;15.77;;;3.50;;
40951;SDS011;26682;51.660;19.338;2024-01-25T07:49:49;12.57;;;4.30;;
40951;SDS011;26682;51.660;19.338;2024-01-25T07:52:32;14.88;;;3.90;;
40951;SDS011;26682;51.660;19.338;2024-01-25T07:55:14;12.60;;;2.92;;
40951;SDS011;26682;51.660;19.338;2024-01-25T07:57:57;15.75;;;4.38;;
40951;SDS011;26682;51.660;19.338;2024-01-25T08:00:40;16.02;;;3.35;;
40951;SDS011;26682;51.660;19.338;2024-01-25T08:03:22;21.38;;;4.30;;
40951;SDS011;26682;51.660;19.338;2024-01-25T08:06:06;17.65;;;4.03;;
40951;SDS011;26682;51.660;19.338;2024-01-25T08:08:50;16.27;;;3.85;;
40951;SDS011;26682;51.660;19.338;2024-01-25T08:11:32;15.98;;;3.75;;
40951;SDS011;26682;51.660;19.338;2024-01-25T08:14:15;19.63;;;4.30;;
40951;SDS011;26682;51.660;19.338;2024-01-25T08:16:57;17.60;;;4.50;;
40951;SDS011;26682;51.660;19.338;2024-01-25T08:19:40;15.23;;;6.03;;
40951;SDS011;26682;51.660;19.338;2024-01-25T08:22:22;19.85;;;4.20;;
40951;SDS011;26682;51.660;19.338;2024-01-25T08:25:05;15.82;;;4.32;;
40951;SDS011;26682;51.660;19.338;2024-01-25T08:27:48;20.63;;;4.78;;
40951;SDS011;26682;51.660;19.338;2024-01-25T08:30:31;13.02;;;4.28;;
40951;SDS011;26682;51.660;19.338;2024-01-25T08:33:15;14.32;;;3.97;;
40951;SDS011;26682;51.660;19.338;2024-01-25T08:35:58;21.60;;;4.68;;
40951;SDS011;26682;51.660;19.338;2024-01-25T08:38:41;20.98;;;4.65;;
40951;SDS011;26682;51.660;19.338;2024-01-25T08:41:24;16.05;;;4.15;;
40951;SDS011;26682;51.660;19.338;2024-01-25T08:44:06;15.32;;;4.43;;
40951;SDS011;26682;51.660;19.338;2024-01-25T08:46:49;14.43;;;4.47;;
40951;SDS011;26682;51.660;19.338;2024-01-25T08:49:31;14.75;;;4.53;;
40951;SDS011;26682;51.660;19.338;2024-01-25T08:52:14;12.95;;;6.00;;
40951;SDS011;26682;51.660;19.338;2024-01-25T08:54:57;21.40;;;6.30;;
40951;SDS011;26682;51.660;19.338;2024-01-25T08:57:40;13.10;;;5.43;;
40951;SDS011;26682;51.660;19.338;2024-01-25T09:00:23;16.27;;;5.72;;
40951;SDS011;26682;51.660;19.338;2024-01-25T09:03:05;15.23;;;5.30;;
40951;SDS011;26682;51.660;19.338;2024-01-25T09:05:48;18.58;;;5.32;;
40951;SDS011;26682;51.660;19.338;2024-01-25T09:08:31;18.35;;;7.68;;
40951;SDS011;26682;51.660;19.338;2024-01-25T09:11:15;18.27;;;7.28;;
40951;SDS011;26682;51.660;19.338;2024-01-25T09:13:57;19.38;;;5.82;;
40951;SDS011;26682;51.660;19.338;2024-01-25T09:16:40;19.88;;;7.70;;
40951;SDS011;26682;51.660;19.338;2024-01-25T09:19:22;20.10;;;6.88;;
40951;SDS011;26682;51.660;19.338;2024-01-25T09:22:06;21.20;;;6.30;;
40951;SDS011;26682;51.660;19.338;2024-01-25T09:24:49;21.20;;;6.85;;
40951;SDS011;26682;51.660;19.338;2024-01-25T09:27:32;17.60;;;5.60;;
40951;SDS011;26682;51.660;19.338;2024-01-25T09:30:15;18.80;;;5.65;;
40951;SDS011;26682;51.660;19.338;2024-01-25T09:32:58;19.25;;;4.85;;
40951;SDS011;26682;51.660;19.338;2024-01-25T09:35:40;21.77;;;5.75;;
40951;SDS011;26682;51.660;19.338;2024-01-25T09:38:23;20.48;;;5.05;;
40951;SDS011;26682;51.660;19.338;2024-01-25T09:41:06;19.10;;;4.15;;
40951;SDS011;26682;51.660;19.338;2024-01-25T09:43:48;18.20;;;4.45;;
40951;SDS011;26682;51.660;19.338;2024-01-25T09:46:31;20.98;;;4.15;;
40951;SDS011;26682;51.660;19.338;2024-01-25T09:49:14;13.18;;;3.45;;
40951;SDS011;26682;51.660;19.338;2024-01-25T09:51:57;17.70;;;4.38;;
40951;SDS011;26682;51.660;19.338;2024-01-25T09:54:46;20.13;;;4.55;;
40951;SDS011;26682;51.660;19.338;2024-01-25T09:57:28;19.83;;;4.57;;
40951;SDS011;26682;51.660;19.338;2024-01-25T10:00:13;17.13;;;4.15;;
40951;SDS011;26682;51.660;19.338;2024-01-25T10:02:57;18.58;;;3.83;;
40951;SDS011;26682;51.660;19.338;2024-01-25T10:05:40;18.35;;;5.53;;
40951;SDS011;26682;51.660;19.338;2024-01-25T10:08:23;18.58;;;6.07;;
40951;SDS011;26682;51.660;19.338;2024-01-25T10:11:06;20.00;;;4.82;;
40951;SDS011;26682;51.660;19.338;2024-01-25T10:13:49;16.95;;;4.60;;
40951;SDS011;26682;51.660;19.338;2024-01-25T10:16:33;24.10;;;5.75;;
40951;SDS011;26682;51.660;19.338;2024-01-25T10:19:15;18.50;;;5.22;;
40951;SDS011;26682;51.660;19.338;2024-01-25T10:21:59;19.15;;;4.25;;
40951;SDS011;26682;51.660;19.338;2024-01-25T10:24:42;17.65;;;4.45;;
40951;SDS011;26682;51.660;19.338;2024-01-25T10:27:25;21.02;;;4.68;;
40951;SDS011;26682;51.660;19.338;2024-01-25T10:30:08;14.45;;;4.00;;
40951;SDS011;26682;51.660;19.338;2024-01-25T10:32:53;22.03;;;6.77;;
40951;SDS011;26682;51.660;19.338;2024-01-25T10:35:37;17.83;;;6.15;;
40951;SDS011;26682;51.660;19.338;2024-01-25T10:38:21;24.08;;;8.43;;
40951;SDS011;26682;51.660;19.338;2024-01-25T10:41:05;28.88;;;9.80;;
40951;SDS011;26682;51.660;19.338;2024-01-25T10:43:48;23.52;;;7.65;;
40951;SDS011;26682;51.660;19.338;2024-01-25T10:46:31;15.32;;;5.25;;
40951;SDS011;26682;51.660;19.338;2024-01-25T10:49:18;23.23;;;5.57;;
40951;SDS011;26682;51.660;19.338;2024-01-25T10:52:01;20.48;;;5.20;;
40951;SDS011;26682;51.660;19.338;2024-01-25T10:54:46;15.52;;;5.32;;
40951;SDS011;26682;51.660;19.338;2024-01-25T10:57:38;18.88;;;5.30;;
40951;SDS011;26682;51.660;19.338;2024-01-25T11:00:26;16.77;;;4.47;;
40951;SDS011;26682;51.660;19.338;2024-01-25T11:03:08;25.50;;;6.78;;
40951;SDS011;26682;51.660;19.338;2024-01-25T11:05:52;21.20;;;7.25;;
40951;SDS011;26682;51.660;19.338;2024-01-25T11:08:36;18.13;;;5.68;;
40951;SDS011;26682;51.660;19.338;2024-01-25T11:11:20;18.20;;;6.68;;
40951;SDS011;26682;51.660;19.338;2024-01-25T11:14:03;18.00;;;6.07;;
40951;SDS011;26682;51.660;19.338;2024-01-25T11:16:45;15.43;;;5.38;;
40951;SDS011;26682;51.660;19.338;2024-01-25T11:19:29;17.92;;;5.75;;
40951;SDS011;26682;51.660;19.338;2024-01-25T11:22:12;23.30;;;6.70;;
40951;SDS011;26682;51.660;19.338;2024-01-25T11:24:54;19.45;;;6.45;;
40951;SDS011;26682;51.660;19.338;2024-01-25T11:27:37;17.63;;;5.63;;
40951;SDS011;26682;51.660;19.338;2024-01-25T11:30:20;15.38;;;4.80;;
40951;SDS011;26682;51.660;19.338;2024-01-25T11:33:04;23.30;;;5.88;;
40951;SDS011;26682;51.660;19.338;2024-01-25T11:35:54;25.15;;;5.88;;
40951;SDS011;26682;51.660;19.338;2024-01-25T11:38:37;11.40;;;4.30;;
40951;SDS011;26682;51.660;19.338;2024-01-25T11:41:20;18.00;;;5.75;;
40951;SDS011;26682;51.660;19.338;2024-01-25T11:44:03;19.17;;;7.38;;
40951;SDS011;26682;51.660;19.338;2024-01-25T11:46:45;18.55;;;6.20;;
40951;SDS011;26682;51.660;19.338;2024-01-25T11:49:28;24.23;;;7.68;;
40951;SDS011;26682;51.660;19.338;2024-01-25T11:52:10;27.42;;;9.02;;
40951;SDS011;26682;51.660;19.338;2024-01-25T11:54:53;21.58;;;6.85;;
40951;SDS011;26682;51.660;19.338;2024-01-25T11:57:39;18.85;;;5.57;;
40951;SDS011;26682;51.660;19.338;2024-01-25T12:00:25;15.00;;;4.97;;
40951;SDS011;26682;51.660;19.338;2024-01-25T12:03:12;18.00;;;4.50;;
40951;SDS011;26682;51.660;19.338;2024-01-25T12:05:56;19.60;;;7.00;;
40951;SDS011;26682;51.660;19.338;2024-01-25T12:08:41;14.05;;;4.95;;
40951;SDS011;26682;51.660;19.338;2024-01-25T12:11:24;14.43;;;4.60;;
40951;SDS011;26682;51.660;19.338;2024-01-25T12:14:07;17.02;;;5.65;;
40951;SDS011;26682;51.660;19.338;2024-01-25T12:16:50;22.60;;;8.07;;
40951;SDS011;26682;51.660;19.338;2024-01-25T12:19:33;12.98;;;5.95;;
40951;SDS011;26682;51.660;19.338;2024-01-25T12:22:20;11.73;;;4.90;;
40951;SDS011;26682;51.660;19.338;2024-01-25T12:25:06;11.77;;;4.85;;
40951;SDS011;26682;51.660;19.338;2024-01-25T12:27:51;15.32;;;4.30;;
40951;SDS011;26682;51.660;19.338;2024-01-25T12:30:35;22.52;;;7.50;;
40951;SDS011;26682;51.660;19.338;2024-01-25T12:33:18;8.68;;;3.90;;
40951;SDS011;26682;51.660;19.338;2024-01-25T12:36:02;15.43;;;5.30;;
40951;SDS011;26682;51.660;19.338;2024-01-25T12:38:46;20.10;;;7.65;;
40951;SDS011;26682;51.660;19.338;2024-01-25T12:41:32;15.82;;;6.90;;
40951;SDS011;26682;51.660;19.338;2024-01-25T12:44:15;24.23;;;8.13;;
40951;SDS011;26682;51.660;19.338;2024-01-25T12:46:58;14.15;;;6.00;;
40951;SDS011;26682;51.660;19.338;2024-01-25T12:49:43;12.43;;;4.65;;
40951;SDS011;26682;51.660;19.338;2024-01-25T12:52:27;13.07;;;4.65;;
40951;SDS011;26682;51.660;19.338;2024-01-25T12:55:10;11.23;;;5.07;;
40951;SDS011;26682;51.660;19.338;2024-01-25T12:57:53;11.90;;;5.47;;
40951;SDS011;26682;51.660;19.338;2024-01-25T13:00:37;12.75;;;4.68;;
40951;SDS011;26682;51.660;19.338;2024-01-25T13:03:19;23.85;;;9.73;;
40951;SDS011;26682;51.660;19.338;2024-01-25T13:06:02;14.77;;;7.30;;
40951;SDS011;26682;51.660;19.338;2024-01-25T13:08:45;19.13;;;9.63;;
40951;SDS011;26682;51.660;19.338;2024-01-25T13:11:28;14.80;;;6.60;;
40951;SDS011;26682;51.660;19.338;2024-01-25T13:14:10;16.08;;;8.30;;
40951;SDS011;26682;51.660;19.338;2024-01-25T13:16:53;18.75;;;7.85;;
40951;SDS011;26682;51.660;19.338;2024-01-25T13:19:35;16.95;;;6.78;;
40951;SDS011;26682;51.660;19.338;2024-01-25T13:22:18;18.02;;;7.15;;
40951;SDS011;26682;51.660;19.338;2024-01-25T13:25:03;17.17;;;7.63;;
40951;SDS011;26682;51.660;19.338;2024-01-25T13:27:46;13.80;;;6.28;;
40951;SDS011;26682;51.660;19.338;2024-01-25T13:30:28;17.73;;;7.43;;
40951;SDS011;26682;51.660;19.338;2024-01-25T13:33:11;19.35;;;7.00;;
40951;SDS011;26682;51.660;19.338;2024-01-25T13:35:54;21.52;;;7.30;;
40951;SDS011;26682;51.660;19.338;2024-01-25T13:38:36;15.80;;;6.43;;
40951;SDS011;26682;51.660;19.338;2024-01-25T13:41:19;20.08;;;9.00;;
40951;SDS011;26682;51.660;19.338;2024-01-25T13:44:01;18.55;;;6.75;;
40951;SDS011;26682;51.660;19.338;2024-01-25T13:46:44;19.65;;;7.28;;
40951;SDS011;26682;51.660;19.338;2024-01-25T13:49:26;18.92;;;7.88;;
40951;SDS011;26682;51.660;19.338;2024-01-25T13:52:14;23.92;;;9.18;;
40951;SDS011;26682;51.660;19.338;2024-01-25T13:55:01;19.25;;;9.40;;
40951;SDS011;26682;51.660;19.338;2024-01-25T13:57:44;23.15;;;8.98;;
40951;SDS011;26682;51.660;19.338;2024-01-25T14:00:26;16.08;;;7.68;;
40951;SDS011;26682;51.660;19.338;2024-01-25T14:03:09;19.92;;;7.72;;
40951;SDS011;26682;51.660;19.338;2024-01-25T14:05:52;24.33;;;10.73;;
40951;SDS011;26682;51.660;19.338;2024-01-25T14:08:38;17.67;;;9.60;;
40951;SDS011;26682;51.660;19.338;2024-01-25T14:11:21;25.00;;;11.95;;
40951;SDS011;26682;51.660;19.338;2024-01-25T14:14:04;22.05;;;10.32;;
40951;SDS011;26682;51.660;19.338;2024-01-25T14:16:47;27.73;;;10.40;;
40951;SDS011;26682;51.660;19.338;2024-01-25T14:19:29;25.25;;;12.65;;
40951;SDS011;26682;51.660;19.338;2024-01-25T14:22:13;33.33;;;12.45;;
40951;SDS011;26682;51.660;19.338;2024-01-25T14:25:10;24.77;;;9.50;;
40951;SDS011;26682;51.660;19.338;2024-01-25T14:27:54;37.90;;;17.33;;
40951;SDS011;26682;51.660;19.338;2024-01-25T14:30:39;19.83;;;9.37;;
40951;SDS011;26682;51.660;19.338;2024-01-25T14:33:23;23.58;;;8.57;;
40951;SDS011;26682;51.660;19.338;2024-01-25T14:36:05;20.02;;;8.73;;
40951;SDS011;26682;51.660;19.338;2024-01-25T14:38:48;20.75;;;7.60;;
40951;SDS011;26682;51.660;19.338;2024-01-25T14:41:30;25.77;;;10.63;;
40951;SDS011;26682;51.660;19.338;2024-01-25T14:44:15;23.90;;;8.82;;
40951;SDS011;26682;51.660;19.338;2024-01-25T14:46:57;17.25;;;7.45;;
40951;SDS011;26682;51.660;19.338;2024-01-25T14:49:41;20.90;;;8.68;;
40951;SDS011;26682;51.660;19.338;2024-01-25T14:52:23;22.73;;;10.68;;
40951;SDS011;26682;51.660;19.338;2024-01-25T14:55:06;34.03;;;13.40;;
40951;SDS011;26682;51.660;19.338;2024-01-25T14:57:49;21.75;;;9.15;;
40951;SDS011;26682;51.660;19.338;2024-01-25T15:00:33;19.65;;;9.02;;
40951;SDS011;26682;51.660;19.338;2024-01-25T15:03:16;26.40;;;11.52;;
40951;SDS011;26682;51.660;19.338;2024-01-25T15:05:59;23.00;;;10.90;;
40951;SDS011;26682;51.660;19.338;2024-01-25T15:08:42;30.10;;;11.95;;
40951;SDS011;26682;51.660;19.338;2024-01-25T15:11:25;24.42;;;12.68;;
40951;SDS011;26682;51.660;19.338;2024-01-25T15:14:07;31.90;;;14.02;;
40951;SDS011;26682;51.660;19.338;2024-01-25T15:16:50;26.42;;;11.05;;
40951;SDS011;26682;51.660;19.338;2024-01-25T15:19:32;34.15;;;14.07;;
40951;SDS011;26682;51.660;19.338;2024-01-25T15:22:15;26.88;;;13.55;;
40951;SDS011;26682;51.660;19.338;2024-01-25T15:24:58;44.80;;;17.35;;
40951;SDS011;26682;51.660;19.338;2024-01-25T15:27:42;27.80;;;11.63;;
40951;SDS011;26682;51.660;19.338;2024-01-25T15:30:25;31.98;;;12.80;;
40951;SDS011;26682;51.660;19.338;2024-01-25T15:33:08;30.05;;;12.27;;
40951;SDS011;26682;51.660;19.338;2024-01-25T15:35:51;31.75;;;12.82;;
40951;SDS011;26682;51.660;19.338;2024-01-25T15:38:36;40.47;;;14.95;;
40951;SDS011;26682;51.660;19.338;2024-01-25T15:41:18;31.27;;;13.77;;
40951;SDS011;26682;51.660;19.338;2024-01-25T15:44:04;27.95;;;12.43;;
40951;SDS011;26682;51.660;19.338;2024-01-25T15:46:47;33.92;;;14.93;;
40951;SDS011;26682;51.660;19.338;2024-01-25T15:49:30;32.50;;;13.57;;
40951;SDS011;26682;51.660;19.338;2024-01-25T15:52:12;24.50;;;11.50;;
40951;SDS011;26682;51.660;19.338;2024-01-25T15:54:58;26.23;;;12.53;;